sensor_id;sensor_type;location;lat;lon;timestamp;temperature;humidity
73777;DHT22;62088;50.240;2.696;2023-04-15T00:01:09;9.20;78.10
73777;DHT22;62088;50.240;2.696;2023-04-15T00:03:37;9.20;78.20
73777;DHT22;62088;50.240;2.696;2023-04-15T00:06:05;9.10;78.20
73777;DHT22;62088;50.240;2.696;2023-04-15T00:08:32;9.20;78.30
73777;DHT22;62088;50.240;2.696;2023-04-15T00:10:59;9.20;78.40
73777;DHT22;62088;50.240;2.696;2023-04-15T00:13:29;9.20;78.50
73777;DHT22;62088;50.240;2.696;2023-04-15T00:15:56;9.20;78.50
73777;DHT22;62088;50.240;2.696;2023-04-15T00:18:24;9.20;78.60
73777;DHT22;62088;50.240;2.696;2023-04-15T00:20:51;9.20;78.70
73777;DHT22;62088;50.240;2.696;2023-04-15T00:23:19;9.10;78.70
73777;DHT22;62088;50.240;2.696;2023-04-15T00:25:46;9.10;78.80
73777;DHT22;62088;50.240;2.696;2023-04-15T00:28:13;9.10;78.80
73777;DHT22;62088;50.240;2.696;2023-04-15T00:30:41;9.10;78.90
73777;DHT22;62088;50.240;2.696;2023-04-15T00:33:09;9.10;78.90
73777;DHT22;62088;50.240;2.696;2023-04-15T00:35:36;9.10;79.00
73777;DHT22;62088;50.240;2.696;2023-04-15T00:38:05;9.10;79.10
73777;DHT22;62088;50.240;2.696;2023-04-15T00:40:33;9.00;79.10
73777;DHT22;62088;50.240;2.696;2023-04-15T00:43:00;9.00;79.10
73777;DHT22;62088;50.240;2.696;2023-04-15T00:45:28;9.00;79.10
73777;DHT22;62088;50.240;2.696;2023-04-15T00:47:56;9.00;79.20
73777;DHT22;62088;50.240;2.696;2023-04-15T00:50:23;9.00;79.20
73777;DHT22;62088;50.240;2.696;2023-04-15T00:52:50;9.00;79.20
73777;DHT22;62088;50.240;2.696;2023-04-15T00:55:18;9.00;79.30
73777;DHT22;62088;50.240;2.696;2023-04-15T00:57:45;9.00;79.30
73777;DHT22;62088;50.240;2.696;2023-04-15T01:00:13;9.00;79.30
73777;DHT22;62088;50.240;2.696;2023-04-15T01:02:40;9.00;79.40
73777;DHT22;62088;50.240;2.696;2023-04-15T01:05:08;9.00;79.40
73777;DHT22;62088;50.240;2.696;2023-04-15T01:07:35;9.00;79.40
73777;DHT22;62088;50.240;2.696;2023-04-15T01:10:03;9.00;79.50
73777;DHT22;62088;50.240;2.696;2023-04-15T01:12:31;9.00;79.50
73777;DHT22;62088;50.240;2.696;2023-04-15T01:14:59;9.00;79.60
73777;DHT22;62088;50.240;2.696;2023-04-15T01:17:27;9.00;79.60
73777;DHT22;62088;50.240;2.696;2023-04-15T01:19:55;9.00;79.60
73777;DHT22;62088;50.240;2.696;2023-04-15T01:22:24;9.00;79.60
73777;DHT22;62088;50.240;2.696;2023-04-15T01:25:13;9.00;79.60
73777;DHT22;62088;50.240;2.696;2023-04-15T01:27:43;9.00;79.60
73777;DHT22;62088;50.240;2.696;2023-04-15T01:30:10;8.90;79.70
73777;DHT22;62088;50.240;2.696;2023-04-15T01:32:38;9.00;79.70
73777;DHT22;62088;50.240;2.696;2023-04-15T01:35:05;8.90;79.70
73777;DHT22;62088;50.240;2.696;2023-04-15T01:37:32;8.90;79.80
73777;DHT22;62088;50.240;2.696;2023-04-15T01:39:59;8.90;79.80
73777;DHT22;62088;50.240;2.696;2023-04-15T01:42:27;8.90;79.80
73777;DHT22;62088;50.240;2.696;2023-04-15T01:44:54;8.90;79.90
73777;DHT22;62088;50.240;2.696;2023-04-15T01:47:21;8.90;79.90
73777;DHT22;62088;50.240;2.696;2023-04-15T01:49:49;8.90;79.90
73777;DHT22;62088;50.240;2.696;2023-04-15T01:52:16;8.90;79.90
73777;DHT22;62088;50.240;2.696;2023-04-15T01:54:43;8.90;80.00
73777;DHT22;62088;50.240;2.696;2023-04-15T01:57:11;8.90;80.10
73777;DHT22;62088;50.240;2.696;2023-04-15T01:59:38;8.90;80.10
73777;DHT22;62088;50.240;2.696;2023-04-15T02:02:05;8.90;80.20
73777;DHT22;62088;50.240;2.696;2023-04-15T02:04:32;8.90;80.20
73777;DHT22;62088;50.240;2.696;2023-04-15T02:07:00;8.90;80.30
73777;DHT22;62088;50.240;2.696;2023-04-15T02:09:27;8.90;80.30
73777;DHT22;62088;50.240;2.696;2023-04-15T02:11:56;8.90;80.40
73777;DHT22;62088;50.240;2.696;2023-04-15T02:14:23;8.90;80.40
73777;DHT22;62088;50.240;2.696;2023-04-15T02:16:50;8.90;80.40
73777;DHT22;62088;50.240;2.696;2023-04-15T02:19:17;8.80;80.50
73777;DHT22;62088;50.240;2.696;2023-04-15T02:21:44;8.90;80.50
73777;DHT22;62088;50.240;2.696;2023-04-15T02:24:11;8.90;80.50
73777;DHT22;62088;50.240;2.696;2023-04-15T02:26:40;8.80;80.60
73777;DHT22;62088;50.240;2.696;2023-04-15T02:29:07;8.80;80.60
73777;DHT22;62088;50.240;2.696;2023-04-15T02:31:34;8.80;80.60
73777;DHT22;62088;50.240;2.696;2023-04-15T02:34:06;8.80;80.60
73777;DHT22;62088;50.240;2.696;2023-04-15T02:36:34;8.90;80.60
73777;DHT22;62088;50.240;2.696;2023-04-15T02:39:01;8.80;80.70
73777;DHT22;62088;50.240;2.696;2023-04-15T02:41:29;8.80;80.70
73777;DHT22;62088;50.240;2.696;2023-04-15T02:43:56;8.80;80.70
73777;DHT22;62088;50.240;2.696;2023-04-15T02:46:23;8.80;80.70
73777;DHT22;62088;50.240;2.696;2023-04-15T02:48:50;8.80;80.70
73777;DHT22;62088;50.240;2.696;2023-04-15T02:51:21;8.80;80.80
73777;DHT22;62088;50.240;2.696;2023-04-15T02:53:51;8.80;80.80
73777;DHT22;62088;50.240;2.696;2023-04-15T02:56:18;8.80;80.80
73777;DHT22;62088;50.240;2.696;2023-04-15T02:58:46;8.80;80.80
73777;DHT22;62088;50.240;2.696;2023-04-15T03:01:16;8.80;80.80
73777;DHT22;62088;50.240;2.696;2023-04-15T03:03:43;8.80;80.90
73777;DHT22;62088;50.240;2.696;2023-04-15T03:06:11;8.80;80.90
73777;DHT22;62088;50.240;2.696;2023-04-15T03:08:38;8.80;80.90
73777;DHT22;62088;50.240;2.696;2023-04-15T03:11:05;8.80;80.90
73777;DHT22;62088;50.240;2.696;2023-04-15T03:13:35;8.80;81.00
73777;DHT22;62088;50.240;2.696;2023-04-15T03:16:09;8.80;81.00
73777;DHT22;62088;50.240;2.696;2023-04-15T03:18:36;8.80;81.10
73777;DHT22;62088;50.240;2.696;2023-04-15T03:21:04;8.80;81.10
73777;DHT22;62088;50.240;2.696;2023-04-15T03:23:34;8.80;81.10
73777;DHT22;62088;50.240;2.696;2023-04-15T03:26:02;8.80;81.10
73777;DHT22;62088;50.240;2.696;2023-04-15T03:28:31;8.80;81.20
73777;DHT22;62088;50.240;2.696;2023-04-15T03:30:59;8.80;81.20
73777;DHT22;62088;50.240;2.696;2023-04-15T03:33:27;8.80;81.20
73777;DHT22;62088;50.240;2.696;2023-04-15T03:35:54;8.80;81.20
73777;DHT22;62088;50.240;2.696;2023-04-15T03:38:21;8.90;81.20
73777;DHT22;62088;50.240;2.696;2023-04-15T03:40:48;8.80;81.20
73777;DHT22;62088;50.240;2.696;2023-04-15T03:43:15;8.80;81.30
73777;DHT22;62088;50.240;2.696;2023-04-15T03:45:42;8.80;81.20
73777;DHT22;62088;50.240;2.696;2023-04-15T03:48:09;8.80;81.20
73777;DHT22;62088;50.240;2.696;2023-04-15T03:50:44;8.90;81.30
73777;DHT22;62088;50.240;2.696;2023-04-15T03:53:11;8.90;81.30
73777;DHT22;62088;50.240;2.696;2023-04-15T03:55:38;8.90;81.30
73777;DHT22;62088;50.240;2.696;2023-04-15T03:58:05;8.90;81.30
73777;DHT22;62088;50.240;2.696;2023-04-15T04:00:33;8.90;81.30
73777;DHT22;62088;50.240;2.696;2023-04-15T04:02:59;8.90;81.30
73777;DHT22;62088;50.240;2.696;2023-04-15T04:05:27;8.90;81.30
73777;DHT22;62088;50.240;2.696;2023-04-15T04:07:54;8.90;81.30
73777;DHT22;62088;50.240;2.696;2023-04-15T04:10:21;8.90;81.30
73777;DHT22;62088;50.240;2.696;2023-04-15T04:12:48;8.90;81.40
73777;DHT22;62088;50.240;2.696;2023-04-15T04:15:15;8.90;81.40
73777;DHT22;62088;50.240;2.696;2023-04-15T04:17:42;8.90;81.40
73777;DHT22;62088;50.240;2.696;2023-04-15T04:20:10;8.90;81.40
73777;DHT22;62088;50.240;2.696;2023-04-15T04:22:38;8.80;81.40
73777;DHT22;62088;50.240;2.696;2023-04-15T04:25:06;8.90;81.50
73777;DHT22;62088;50.240;2.696;2023-04-15T04:27:34;8.90;81.50
73777;DHT22;62088;50.240;2.696;2023-04-15T04:30:01;8.80;81.60
73777;DHT22;62088;50.240;2.696;2023-04-15T04:32:28;8.80;81.60
73777;DHT22;62088;50.240;2.696;2023-04-15T04:34:56;8.80;81.70
73777;DHT22;62088;50.240;2.696;2023-04-15T04:37:23;8.80;81.70
73777;DHT22;62088;50.240;2.696;2023-04-15T04:39:50;8.80;81.80
73777;DHT22;62088;50.240;2.696;2023-04-15T04:42:17;8.80;81.80
73777;DHT22;62088;50.240;2.696;2023-04-15T04:44:45;8.70;81.90
73777;DHT22;62088;50.240;2.696;2023-04-15T04:47:12;8.70;82.00
73777;DHT22;62088;50.240;2.696;2023-04-15T04:49:39;8.70;82.00
73777;DHT22;62088;50.240;2.696;2023-04-15T04:52:07;8.60;82.10
73777;DHT22;62088;50.240;2.696;2023-04-15T04:54:34;8.60;82.20
73777;DHT22;62088;50.240;2.696;2023-04-15T04:57:01;8.70;82.20
73777;DHT22;62088;50.240;2.696;2023-04-15T04:59:28;8.60;82.30
73777;DHT22;62088;50.240;2.696;2023-04-15T05:01:55;8.60;82.40
73777;DHT22;62088;50.240;2.696;2023-04-15T05:04:23;8.60;82.40
73777;DHT22;62088;50.240;2.696;2023-04-15T05:06:50;8.60;82.50
73777;DHT22;62088;50.240;2.696;2023-04-15T05:09:20;8.60;82.50
73777;DHT22;62088;50.240;2.696;2023-04-15T05:11:48;8.60;82.60
73777;DHT22;62088;50.240;2.696;2023-04-15T05:14:16;8.60;82.60
73777;DHT22;62088;50.240;2.696;2023-04-15T05:16:43;8.60;82.70
73777;DHT22;62088;50.240;2.696;2023-04-15T05:19:10;8.60;82.70
73777;DHT22;62088;50.240;2.696;2023-04-15T05:21:37;8.60;82.70
73777;DHT22;62088;50.240;2.696;2023-04-15T05:24:05;8.60;82.80
73777;DHT22;62088;50.240;2.696;2023-04-15T05:26:32;8.60;82.80
73777;DHT22;62088;50.240;2.696;2023-04-15T05:28:59;8.60;82.80
73777;DHT22;62088;50.240;2.696;2023-04-15T05:31:27;8.60;82.80
73777;DHT22;62088;50.240;2.696;2023-04-15T05:33:55;8.60;82.90
73777;DHT22;62088;50.240;2.696;2023-04-15T05:36:22;8.60;82.90
73777;DHT22;62088;50.240;2.696;2023-04-15T05:38:49;8.60;82.90
73777;DHT22;62088;50.240;2.696;2023-04-15T05:41:16;8.60;83.00
73777;DHT22;62088;50.240;2.696;2023-04-15T05:43:45;8.60;83.00
73777;DHT22;62088;50.240;2.696;2023-04-15T05:46:12;8.60;83.00
73777;DHT22;62088;50.240;2.696;2023-04-15T05:48:39;8.60;83.00
73777;DHT22;62088;50.240;2.696;2023-04-15T05:51:07;8.60;83.00
73777;DHT22;62088;50.240;2.696;2023-04-15T05:53:34;8.60;83.00
73777;DHT22;62088;50.240;2.696;2023-04-15T05:56:01;8.70;83.00
73777;DHT22;62088;50.240;2.696;2023-04-15T05:58:28;8.60;83.00
73777;DHT22;62088;50.240;2.696;2023-04-15T06:00:55;8.70;83.10
73777;DHT22;62088;50.240;2.696;2023-04-15T06:03:23;8.70;83.10
73777;DHT22;62088;50.240;2.696;2023-04-15T06:05:50;8.70;83.10
73777;DHT22;62088;50.240;2.696;2023-04-15T06:08:17;8.70;83.10
73777;DHT22;62088;50.240;2.696;2023-04-15T06:10:44;8.70;83.10
73777;DHT22;62088;50.240;2.696;2023-04-15T06:13:12;8.80;83.20
73777;DHT22;62088;50.240;2.696;2023-04-15T06:15:39;8.80;83.10
73777;DHT22;62088;50.240;2.696;2023-04-15T06:18:06;8.80;83.20
73777;DHT22;62088;50.240;2.696;2023-04-15T06:20:34;8.80;83.20
73777;DHT22;62088;50.240;2.696;2023-04-15T06:23:02;8.80;83.20
73777;DHT22;62088;50.240;2.696;2023-04-15T06:25:29;8.80;83.30
73777;DHT22;62088;50.240;2.696;2023-04-15T06:27:56;8.80;83.30
73777;DHT22;62088;50.240;2.696;2023-04-15T06:30:23;8.80;83.40
73777;DHT22;62088;50.240;2.696;2023-04-15T06:32:51;8.90;83.40
73777;DHT22;62088;50.240;2.696;2023-04-15T06:35:18;8.90;83.40
73777;DHT22;62088;50.240;2.696;2023-04-15T06:37:45;8.90;83.50
73777;DHT22;62088;50.240;2.696;2023-04-15T06:40:12;8.90;83.50
73777;DHT22;62088;50.240;2.696;2023-04-15T06:42:39;8.90;83.50
73777;DHT22;62088;50.240;2.696;2023-04-15T06:45:08;8.90;83.50
73777;DHT22;62088;50.240;2.696;2023-04-15T06:47:35;9.00;83.50
73777;DHT22;62088;50.240;2.696;2023-04-15T06:50:02;9.00;83.50
73777;DHT22;62088;50.240;2.696;2023-04-15T06:52:30;8.90;83.50
73777;DHT22;62088;50.240;2.696;2023-04-15T06:54:57;9.00;83.50
73777;DHT22;62088;50.240;2.696;2023-04-15T06:57:25;9.00;83.60
73777;DHT22;62088;50.240;2.696;2023-04-15T06:59:52;9.00;83.60
73777;DHT22;62088;50.240;2.696;2023-04-15T07:02:20;9.00;83.60
73777;DHT22;62088;50.240;2.696;2023-04-15T07:04:47;9.10;83.60
73777;DHT22;62088;50.240;2.696;2023-04-15T07:07:14;9.10;83.60
73777;DHT22;62088;50.240;2.696;2023-04-15T07:09:43;9.10;83.60
73777;DHT22;62088;50.240;2.696;2023-04-15T07:12:10;9.10;83.70
73777;DHT22;62088;50.240;2.696;2023-04-15T07:14:37;9.20;83.70
73777;DHT22;62088;50.240;2.696;2023-04-15T07:17:04;9.20;83.70
73777;DHT22;62088;50.240;2.696;2023-04-15T07:19:32;9.20;83.80
73777;DHT22;62088;50.240;2.696;2023-04-15T07:21:59;9.20;83.80
73777;DHT22;62088;50.240;2.696;2023-04-15T07:24:26;9.30;83.80
73777;DHT22;62088;50.240;2.696;2023-04-15T07:26:53;9.40;84.00
73777;DHT22;62088;50.240;2.696;2023-04-15T07:29:26;9.30;84.00
73777;DHT22;62088;50.240;2.696;2023-04-15T07:31:53;9.40;84.00
73777;DHT22;62088;50.240;2.696;2023-04-15T07:34:20;9.40;84.00
73777;DHT22;62088;50.240;2.696;2023-04-15T07:36:47;9.50;84.00
73777;DHT22;62088;50.240;2.696;2023-04-15T07:39:17;9.50;84.00
73777;DHT22;62088;50.240;2.696;2023-04-15T07:41:45;9.50;84.00
73777;DHT22;62088;50.240;2.696;2023-04-15T07:44:12;9.50;83.90
73777;DHT22;62088;50.240;2.696;2023-04-15T07:46:39;9.60;83.90
73777;DHT22;62088;50.240;2.696;2023-04-15T07:49:06;9.60;83.90
73777;DHT22;62088;50.240;2.696;2023-04-15T07:51:34;9.70;83.90
73777;DHT22;62088;50.240;2.696;2023-04-15T07:54:01;9.70;83.80
73777;DHT22;62088;50.240;2.696;2023-04-15T07:56:28;9.70;83.80
73777;DHT22;62088;50.240;2.696;2023-04-15T07:58:55;9.70;83.80
73777;DHT22;62088;50.240;2.696;2023-04-15T08:01:22;9.70;83.80
73777;DHT22;62088;50.240;2.696;2023-04-15T08:03:50;9.80;83.80
73777;DHT22;62088;50.240;2.696;2023-04-15T08:06:17;9.80;83.80
73777;DHT22;62088;50.240;2.696;2023-04-15T08:08:44;9.80;83.70
73777;DHT22;62088;50.240;2.696;2023-04-15T08:11:11;9.80;83.70
73777;DHT22;62088;50.240;2.696;2023-04-15T08:13:38;9.90;83.70
73777;DHT22;62088;50.240;2.696;2023-04-15T08:16:23;9.90;83.70
73777;DHT22;62088;50.240;2.696;2023-04-15T08:18:52;9.90;83.60
73777;DHT22;62088;50.240;2.696;2023-04-15T08:21:19;9.90;83.70
73777;DHT22;62088;50.240;2.696;2023-04-15T08:23:48;9.90;83.60
73777;DHT22;62088;50.240;2.696;2023-04-15T08:26:19;10.00;83.60
73777;DHT22;62088;50.240;2.696;2023-04-15T08:28:47;10.00;83.50
73777;DHT22;62088;50.240;2.696;2023-04-15T08:31:16;10.00;83.40
73777;DHT22;62088;50.240;2.696;2023-04-15T08:33:43;10.00;83.40
73777;DHT22;62088;50.240;2.696;2023-04-15T08:36:11;10.00;83.30
73777;DHT22;62088;50.240;2.696;2023-04-15T08:38:39;10.00;83.30
73777;DHT22;62088;50.240;2.696;2023-04-15T08:41:11;10.00;83.20
73777;DHT22;62088;50.240;2.696;2023-04-15T08:43:57;10.00;83.10
73777;DHT22;62088;50.240;2.696;2023-04-15T08:46:27;10.00;83.10
73777;DHT22;62088;50.240;2.696;2023-04-15T08:48:56;10.00;83.00
73777;DHT22;62088;50.240;2.696;2023-04-15T08:51:23;10.00;83.00
73777;DHT22;62088;50.240;2.696;2023-04-15T08:53:51;10.00;83.00
73777;DHT22;62088;50.240;2.696;2023-04-15T08:56:18;10.00;83.00
73777;DHT22;62088;50.240;2.696;2023-04-15T08:58:49;10.10;83.10
73777;DHT22;62088;50.240;2.696;2023-04-15T09:01:17;10.00;83.20
73777;DHT22;62088;50.240;2.696;2023-04-15T09:03:48;10.10;83.20
73777;DHT22;62088;50.240;2.696;2023-04-15T09:06:16;10.10;83.20
73777;DHT22;62088;50.240;2.696;2023-04-15T09:08:43;10.10;83.30
73777;DHT22;62088;50.240;2.696;2023-04-15T09:11:10;10.20;83.30
73777;DHT22;62088;50.240;2.696;2023-04-15T09:13:38;10.20;83.40
73777;DHT22;62088;50.240;2.696;2023-04-15T09:16:05;10.20;83.40
73777;DHT22;62088;50.240;2.696;2023-04-15T09:18:35;10.30;83.40
73777;DHT22;62088;50.240;2.696;2023-04-15T09:21:08;10.30;83.40
73777;DHT22;62088;50.240;2.696;2023-04-15T09:23:40;10.30;83.40
73777;DHT22;62088;50.240;2.696;2023-04-15T09:26:10;10.40;83.40
73777;DHT22;62088;50.240;2.696;2023-04-15T09:28:41;10.40;83.40
73777;DHT22;62088;50.240;2.696;2023-04-15T09:31:08;10.40;83.40
73777;DHT22;62088;50.240;2.696;2023-04-15T09:33:54;10.50;83.40
73777;DHT22;62088;50.240;2.696;2023-04-15T09:36:22;10.60;83.40
73777;DHT22;62088;50.240;2.696;2023-04-15T09:38:58;10.60;83.30
73777;DHT22;62088;50.240;2.696;2023-04-15T09:41:26;10.70;83.20
73777;DHT22;62088;50.240;2.696;2023-04-15T09:43:54;10.70;83.10
73777;DHT22;62088;50.240;2.696;2023-04-15T09:46:40;10.70;82.90
73777;DHT22;62088;50.240;2.696;2023-04-15T09:49:09;10.70;82.80
73777;DHT22;62088;50.240;2.696;2023-04-15T09:51:37;10.70;82.60
73777;DHT22;62088;50.240;2.696;2023-04-15T09:54:04;10.70;82.50
73777;DHT22;62088;50.240;2.696;2023-04-15T09:56:36;10.70;82.40
73777;DHT22;62088;50.240;2.696;2023-04-15T09:59:04;10.70;82.20
73777;DHT22;62088;50.240;2.696;2023-04-15T10:01:31;10.80;82.20
73777;DHT22;62088;50.240;2.696;2023-04-15T10:04:02;10.70;82.10
73777;DHT22;62088;50.240;2.696;2023-04-15T10:06:30;10.70;82.10
73777;DHT22;62088;50.240;2.696;2023-04-15T10:08:58;10.70;82.00
73777;DHT22;62088;50.240;2.696;2023-04-15T10:11:28;10.80;82.10
73777;DHT22;62088;50.240;2.696;2023-04-15T10:13:57;10.80;82.10
73777;DHT22;62088;50.240;2.696;2023-04-15T10:16:26;10.80;82.20
73777;DHT22;62088;50.240;2.696;2023-04-15T10:18:57;10.90;82.30
73777;DHT22;62088;50.240;2.696;2023-04-15T10:21:27;10.90;82.40
73777;DHT22;62088;50.240;2.696;2023-04-15T10:23:57;11.00;82.40
73777;DHT22;62088;50.240;2.696;2023-04-15T10:26:24;11.10;82.50
73777;DHT22;62088;50.240;2.696;2023-04-15T10:28:55;11.20;82.50
73777;DHT22;62088;50.240;2.696;2023-04-15T10:31:25;11.20;82.50
73777;DHT22;62088;50.240;2.696;2023-04-15T10:33:52;11.40;82.50
73777;DHT22;62088;50.240;2.696;2023-04-15T10:36:20;11.40;82.30
73777;DHT22;62088;50.240;2.696;2023-04-15T10:38:47;11.40;82.20
73777;DHT22;62088;50.240;2.696;2023-04-15T10:41:21;11.50;82.10
73777;DHT22;62088;50.240;2.696;2023-04-15T10:43:56;11.60;81.90
73777;DHT22;62088;50.240;2.696;2023-04-15T10:46:53;11.70;81.70
73777;DHT22;62088;50.240;2.696;2023-04-15T10:49:25;11.80;81.20
73777;DHT22;62088;50.240;2.696;2023-04-15T10:51:57;11.90;81.00
73777;DHT22;62088;50.240;2.696;2023-04-15T11:05:08;12.20;80.20
73777;DHT22;62088;50.240;2.696;2023-04-15T11:07:55;12.20;80.00
73777;DHT22;62088;50.240;2.696;2023-04-15T11:12:55;12.40;79.20
73777;DHT22;62088;50.240;2.696;2023-04-15T11:15:40;12.40;79.10
73777;DHT22;62088;50.240;2.696;2023-04-15T11:18:11;12.50;78.80
73777;DHT22;62088;50.240;2.696;2023-04-15T11:20:40;12.50;78.60
73777;DHT22;62088;50.240;2.696;2023-04-15T11:23:08;12.60;78.70
73777;DHT22;62088;50.240;2.696;2023-04-15T11:25:41;12.70;78.70
73777;DHT22;62088;50.240;2.696;2023-04-15T11:28:11;12.80;78.50
73777;DHT22;62088;50.240;2.696;2023-04-15T11:30:41;12.90;78.30
73777;DHT22;62088;50.240;2.696;2023-04-15T11:33:10;13.00;78.00
73777;DHT22;62088;50.240;2.696;2023-04-15T11:35:42;13.10;77.30
73777;DHT22;62088;50.240;2.696;2023-04-15T11:38:11;13.20;77.20
73777;DHT22;62088;50.240;2.696;2023-04-15T11:40:40;13.30;77.30
73777;DHT22;62088;50.240;2.696;2023-04-15T11:43:12;13.40;77.50
73777;DHT22;62088;50.240;2.696;2023-04-15T11:48:22;13.80;77.00
73777;DHT22;62088;50.240;2.696;2023-04-15T11:50:54;13.90;76.70
73777;DHT22;62088;50.240;2.696;2023-04-15T11:53:22;14.10;75.80
73777;DHT22;62088;50.240;2.696;2023-04-15T11:55:51;14.30;75.60
73777;DHT22;62088;50.240;2.696;2023-04-15T11:58:20;14.40;74.40
73777;DHT22;62088;50.240;2.696;2023-04-15T12:00:52;14.50;73.90
73777;DHT22;62088;50.240;2.696;2023-04-15T12:03:24;14.70;73.70
73777;DHT22;62088;50.240;2.696;2023-04-15T12:06:09;14.80;72.60
73777;DHT22;62088;50.240;2.696;2023-04-15T12:11:26;15.00;71.80
73777;DHT22;62088;50.240;2.696;2023-04-15T12:16:48;15.20;70.20
73777;DHT22;62088;50.240;2.696;2023-04-15T12:19:29;15.30;69.80
73777;DHT22;62088;50.240;2.696;2023-04-15T12:22:01;15.30;69.40
73777;DHT22;62088;50.240;2.696;2023-04-15T12:24:33;15.40;70.20
73777;DHT22;62088;50.240;2.696;2023-04-15T12:27:02;15.50;70.10
73777;DHT22;62088;50.240;2.696;2023-04-15T12:29:30;15.60;69.80
73777;DHT22;62088;50.240;2.696;2023-04-15T12:32:07;15.70;69.90
73777;DHT22;62088;50.240;2.696;2023-04-15T12:34:42;15.80;69.00
73777;DHT22;62088;50.240;2.696;2023-04-15T12:37:11;15.90;68.80
73777;DHT22;62088;50.240;2.696;2023-04-15T12:39:43;15.90;68.10
73777;DHT22;62088;50.240;2.696;2023-04-15T12:42:10;15.90;67.00
73777;DHT22;62088;50.240;2.696;2023-04-15T12:44:38;16.00;66.60
73777;DHT22;62088;50.240;2.696;2023-04-15T12:47:07;16.00;66.50
73777;DHT22;62088;50.240;2.696;2023-04-15T12:49:34;16.10;66.40
73777;DHT22;62088;50.240;2.696;2023-04-15T12:52:02;16.20;66.40
73777;DHT22;62088;50.240;2.696;2023-04-15T12:54:30;16.20;66.50
73777;DHT22;62088;50.240;2.696;2023-04-15T12:56:58;16.20;66.10
73777;DHT22;62088;50.240;2.696;2023-04-15T12:59:25;16.30;66.30
73777;DHT22;62088;50.240;2.696;2023-04-15T13:01:53;16.30;65.80
73777;DHT22;62088;50.240;2.696;2023-04-15T13:04:20;16.30;65.60
73777;DHT22;62088;50.240;2.696;2023-04-15T13:06:49;16.30;65.60
73777;DHT22;62088;50.240;2.696;2023-04-15T13:09:17;16.30;65.60
73777;DHT22;62088;50.240;2.696;2023-04-15T13:11:44;16.30;65.80
73777;DHT22;62088;50.240;2.696;2023-04-15T13:14:11;16.30;65.50
73777;DHT22;62088;50.240;2.696;2023-04-15T13:16:39;16.30;65.70
73777;DHT22;62088;50.240;2.696;2023-04-15T13:19:06;16.40;66.00
73777;DHT22;62088;50.240;2.696;2023-04-15T13:21:33;16.40;66.00
73777;DHT22;62088;50.240;2.696;2023-04-15T13:24:03;16.50;64.70
73777;DHT22;62088;50.240;2.696;2023-04-15T13:26:31;16.70;64.70
73777;DHT22;62088;50.240;2.696;2023-04-15T13:28:59;16.80;64.30
73777;DHT22;62088;50.240;2.696;2023-04-15T13:31:26;16.90;63.90
73777;DHT22;62088;50.240;2.696;2023-04-15T13:33:53;17.00;62.90
73777;DHT22;62088;50.240;2.696;2023-04-15T13:36:20;17.10;62.10
73777;DHT22;62088;50.240;2.696;2023-04-15T13:38:47;17.20;62.20
73777;DHT22;62088;50.240;2.696;2023-04-15T13:41:17;17.30;62.20
73777;DHT22;62088;50.240;2.696;2023-04-15T13:43:44;17.40;62.00
73777;DHT22;62088;50.240;2.696;2023-04-15T13:46:13;17.50;61.80
73777;DHT22;62088;50.240;2.696;2023-04-15T13:48:40;17.60;60.90
73777;DHT22;62088;50.240;2.696;2023-04-15T13:51:07;17.60;60.20
73777;DHT22;62088;50.240;2.696;2023-04-15T13:53:34;17.60;60.10
73777;DHT22;62088;50.240;2.696;2023-04-15T13:56:09;17.60;60.00
73777;DHT22;62088;50.240;2.696;2023-04-15T13:58:36;17.50;60.10
73777;DHT22;62088;50.240;2.696;2023-04-15T14:01:04;17.40;60.00
73777;DHT22;62088;50.240;2.696;2023-04-15T14:03:36;17.30;60.10
73777;DHT22;62088;50.240;2.696;2023-04-15T14:06:04;17.20;60.30
73777;DHT22;62088;50.240;2.696;2023-04-15T14:08:31;17.00;60.60
73777;DHT22;62088;50.240;2.696;2023-04-15T14:10:59;16.90;60.60
73777;DHT22;62088;50.240;2.696;2023-04-15T14:13:26;16.80;60.70
73777;DHT22;62088;50.240;2.696;2023-04-15T14:15:53;16.70;61.00
73777;DHT22;62088;50.240;2.696;2023-04-15T14:18:20;16.60;61.20
73777;DHT22;62088;50.240;2.696;2023-04-15T14:20:47;16.50;61.10
73777;DHT22;62088;50.240;2.696;2023-04-15T14:23:14;16.50;61.20
73777;DHT22;62088;50.240;2.696;2023-04-15T14:25:41;16.40;61.50
73777;DHT22;62088;50.240;2.696;2023-04-15T14:28:08;16.40;61.90
73777;DHT22;62088;50.240;2.696;2023-04-15T14:30:35;16.40;61.90
73777;DHT22;62088;50.240;2.696;2023-04-15T14:33:02;16.30;61.70
73777;DHT22;62088;50.240;2.696;2023-04-15T14:35:30;16.30;61.30
73777;DHT22;62088;50.240;2.696;2023-04-15T14:37:57;16.30;62.00
73777;DHT22;62088;50.240;2.696;2023-04-15T14:40:24;16.40;62.00
73777;DHT22;62088;50.240;2.696;2023-04-15T14:42:51;16.40;62.10
73777;DHT22;62088;50.240;2.696;2023-04-15T14:45:18;16.50;62.10
73777;DHT22;62088;50.240;2.696;2023-04-15T14:47:46;16.50;62.00
73777;DHT22;62088;50.240;2.696;2023-04-15T14:50:13;16.60;61.90
73777;DHT22;62088;50.240;2.696;2023-04-15T14:52:40;16.50;61.80
73777;DHT22;62088;50.240;2.696;2023-04-15T14:55:11;16.40;61.80
73777;DHT22;62088;50.240;2.696;2023-04-15T14:57:40;16.40;61.70
73777;DHT22;62088;50.240;2.696;2023-04-15T15:00:08;16.30;61.70
73777;DHT22;62088;50.240;2.696;2023-04-15T15:02:37;16.20;61.80
73777;DHT22;62088;50.240;2.696;2023-04-15T15:05:07;16.10;61.90
73777;DHT22;62088;50.240;2.696;2023-04-15T15:07:35;16.00;61.90
73777;DHT22;62088;50.240;2.696;2023-04-15T15:10:03;15.90;62.00
73777;DHT22;62088;50.240;2.696;2023-04-15T15:12:31;15.90;62.00
73777;DHT22;62088;50.240;2.696;2023-04-15T15:14:59;15.80;62.20
73777;DHT22;62088;50.240;2.696;2023-04-15T15:17:30;15.70;62.40
73777;DHT22;62088;50.240;2.696;2023-04-15T15:19:57;15.60;62.60
73777;DHT22;62088;50.240;2.696;2023-04-15T15:22:24;15.60;62.80
73777;DHT22;62088;50.240;2.696;2023-04-15T15:24:52;15.50;63.10
73777;DHT22;62088;50.240;2.696;2023-04-15T15:27:19;15.50;63.50
73777;DHT22;62088;50.240;2.696;2023-04-15T15:29:46;15.40;63.50
73777;DHT22;62088;50.240;2.696;2023-04-15T15:32:14;15.40;63.60
73777;DHT22;62088;50.240;2.696;2023-04-15T15:34:41;15.40;63.40
73777;DHT22;62088;50.240;2.696;2023-04-15T15:37:08;15.50;62.70
73777;DHT22;62088;50.240;2.696;2023-04-15T15:39:35;15.60;62.00
73777;DHT22;62088;50.240;2.696;2023-04-15T15:42:03;15.60;61.30
73777;DHT22;62088;50.240;2.696;2023-04-15T15:44:30;15.80;60.40
73777;DHT22;62088;50.240;2.696;2023-04-15T15:46:59;15.80;59.80
73777;DHT22;62088;50.240;2.696;2023-04-15T15:49:27;15.90;59.10
73777;DHT22;62088;50.240;2.696;2023-04-15T15:51:55;15.90;58.90
73777;DHT22;62088;50.240;2.696;2023-04-15T15:54:22;15.90;58.40
73777;DHT22;62088;50.240;2.696;2023-04-15T15:56:50;16.00;58.00
73777;DHT22;62088;50.240;2.696;2023-04-15T15:59:17;16.10;58.10
73777;DHT22;62088;50.240;2.696;2023-04-15T16:01:44;16.20;58.00
73777;DHT22;62088;50.240;2.696;2023-04-15T16:04:11;16.20;58.10
73777;DHT22;62088;50.240;2.696;2023-04-15T16:06:39;16.30;58.10
73777;DHT22;62088;50.240;2.696;2023-04-15T16:09:06;16.30;57.80